Chalgrove, United Kingdom
Current Conditions -  °F | °C
As of 12:50 AM on Wednesday 22 Oct 2014 (Local Time) from EGUB Reporting Station
Clear Clear  
Wind Chill: 40°   Ceiling: Unl
Heat Index: 45°   Visibility: 6mi
Dew Point: 34°   Wind: 9mph
Humidity: 66%   Direction: 230°SW
Pressure: 30.18"   Gusts: NA
Location:  51.66°N, 1.08°W
Report Text: EGUB 212350Z 23008KT CAVOK 07/01 Q1022 BLU NOSIG
Loading
Personal Weather Stations






























Interactive Weather Map
Tropical Storm Tracking
New forecast layout! Learn more

10-Day Weather Forecast

Advertisements
Track Severe Weather on mobile